quebles.com alexa rank chart, quebles.com alexa rank daily changes

quebles.com alexa rank chart, quebles.com alexa rank daily changes

quebles.com
Actual rank:
522 481

RANK HISTORY

Date Rank Diff
2017/01/22 522 481 +13 568
2017/01/21 508 913 +12 484
2017/01/20 496 429 -8 181
2017/01/19 504 610 -2 996
2017/01/18 507 606 -5 642
2017/01/17 513 248 -12 940
2017/01/16 526 188 -9 331
2017/01/15 535 519 -3 846
2017/01/14 539 365 -11 529
2017/01/13 550 894 +40 315
2017/01/12 510 579 +13 805
2017/01/11 496 774 -12 067
2017/01/10 508 841 -10 671
2017/01/09 519 512 +10 638
2017/01/08 508 874 -4 273
2017/01/07 513 147 -13 069
2017/01/06 526 216 -13 721
2017/01/05 539 937 -11 680
2017/01/04 551 617 -35 924
2017/01/03 587 541 -27 101
2017/01/02 614 642 -4 398
2017/01/01 619 040 -9 870
2016/12/31 628 910 +18 141
2016/12/30 610 769 -53 286
2016/12/29 664 055 -3 249
2016/12/28 667 304 +8 106
2016/12/27 659 198 +211
2016/12/26 658 987 +13 191
2016/12/25 645 796 -38 109
2016/12/24 683 905 +67 607
2016/12/23 616 298 +10 938
2016/12/22 605 360 -2 304
2016/12/21 607 664 -30 295
2016/12/20 637 959 +12 243
2016/12/19 625 716 +9 410
2016/12/18 616 306 +6 053
2016/12/17 610 253 +10 211
2016/12/16 600 042 +42 061
2016/12/15 557 981 +9 764
2016/12/14 548 217 -8 534
2016/12/13 556 751 -53 761
2016/12/12 610 512 -61 153
2016/12/11 671 665 +7 214
2016/12/10 664 451 +10 013
2016/12/09 654 438 -36 747
2016/12/08 691 185 +7 971
2016/12/07 683 214 +15 965
2016/12/06 667 249 +23 409
2016/12/05 643 840 -25 751
2016/12/04 669 591 +20 412
2016/12/02 649 179 +37 844
2016/12/01 611 335 +5 365
2016/11/30 605 970 +12 440
2016/11/29 593 530 +633
2016/11/28 592 897 +40 970
2016/11/27 551 927 +10 763
2016/11/26 541 164 +37 309
2016/11/25 503 855 +45 204
2016/11/24 458 651 -24 702
2016/11/23 483 353

WIDGET FOR YOUR SITE

DOMAINS WITH THE NEAREST RANK

Domain Rank
plustagram.com 522 476
worldofdance.com 522 477
kanzei.or.jp 522 478
cometmovie.su 522 479
give2all.org 522 480
quebles.com 522 481
rentmoola.com 522 482
praktiker.de 522 483
disney.co.th 522 484
speranza.in 522 485
yamaha-keyboard-guide.com 522 486

DOMAINS WITH THE NEAREST RANK BY TLD .com

Domain Rank
1tempurl.com 522 473
sopadelibros.com 522 474
paymentsense.com 522 475
plustagram.com 522 476
worldofdance.com 522 477
quebles.com 522 481
rentmoola.com 522 482
yamaha-keyboard-guide.com 522 486
sportifys.com 522 488
lynx-rh.com 522 491
pingthatblog.com 522 496